createdAt,value
2023-06-29T00:02:15.619Z,22.02
2023-06-29T00:04:43.716Z,21.92
2023-06-29T00:07:12.130Z,21.83
2023-06-29T00:09:41.509Z,21.92
2023-06-29T00:12:11.645Z,21.95
2023-06-29T00:14:39.715Z,21.97
2023-06-29T00:17:08.092Z,22.00
2023-06-29T00:19:36.325Z,21.95
2023-06-29T00:22:04.888Z,21.88
2023-06-29T00:24:32.979Z,21.86
2023-06-29T00:27:01.275Z,21.80
2023-06-29T00:29:31.205Z,21.62
2023-06-29T00:31:59.529Z,21.66
2023-06-29T00:34:27.572Z,21.49
2023-06-29T00:36:55.916Z,21.37
2023-06-29T00:39:24.101Z,21.29
2023-06-29T00:41:55.837Z,21.05
2023-06-29T00:44:24.831Z,20.76
2023-06-29T00:46:56.703Z,20.93
2023-06-29T00:49:25.675Z,20.77
2023-06-29T00:51:55.574Z,20.62
2023-06-29T00:54:24.360Z,20.52
2023-06-29T00:56:52.734Z,20.36
2023-06-29T00:59:21.749Z,20.11
2023-06-29T01:01:50.118Z,20.18
2023-06-29T01:04:23.852Z,19.95
2023-06-29T01:06:58.070Z,19.70
2023-06-29T01:09:26.881Z,19.63
2023-06-29T01:11:55.638Z,19.56
2023-06-29T01:14:26.161Z,19.59
2023-06-29T01:16:55.069Z,19.69
2023-06-29T01:19:29.394Z,19.74
2023-06-29T01:22:02.758Z,19.88
2023-06-29T01:24:40.231Z,20.03
2023-06-29T01:27:09.529Z,20.13
2023-06-29T01:29:37.945Z,20.26
2023-06-29T01:32:08.438Z,20.40
2023-06-29T01:34:38.180Z,20.44
2023-06-29T01:37:11.548Z,20.51
2023-06-29T01:39:45.667Z,20.51
2023-06-29T01:42:14.774Z,20.46
2023-06-29T01:44:42.997Z,20.33
2023-06-29T01:47:11.523Z,20.08
2023-06-29T01:49:39.766Z,20.00
2023-06-29T01:52:08.883Z,20.05
2023-06-29T01:54:37.099Z,20.10
2023-06-29T01:57:08.833Z,20.12
2023-06-29T01:59:37.526Z,20.05
2023-06-29T02:02:06.169Z,20.12
2023-06-29T02:04:34.576Z,20.10
2023-06-29T02:07:02.995Z,20.11
2023-06-29T02:09:31.221Z,20.14
2023-06-29T02:11:59.524Z,20.13
2023-06-29T02:14:29.255Z,20.15
2023-06-29T02:16:57.663Z,20.13
2023-06-29T02:19:26.022Z,20.13
2023-06-29T02:21:54.290Z,20.16
2023-06-29T02:24:22.389Z,20.11
2023-06-29T02:26:50.707Z,20.13
2023-06-29T02:29:18.822Z,20.07
2023-06-29T02:31:48.598Z,20.15
2023-06-29T02:34:16.874Z,20.05
2023-06-29T02:36:45.229Z,20.04
2023-06-29T02:39:16.284Z,20.10
2023-06-29T02:41:44.536Z,20.11
2023-06-29T02:44:13.145Z,20.15
2023-06-29T02:46:43.155Z,20.16
2023-06-29T02:49:13.014Z,20.09
2023-06-29T02:51:41.577Z,19.99
2023-06-29T02:54:12.250Z,20.06
2023-06-29T02:56:40.513Z,20.08
2023-06-29T02:59:08.651Z,20.07
2023-06-29T03:01:37.010Z,20.05
2023-06-29T03:04:05.436Z,20.10
2023-06-29T03:06:37.306Z,20.02
2023-06-29T03:09:05.494Z,20.01
2023-06-29T03:11:33.951Z,20.00
2023-06-29T03:14:02.014Z,20.00
2023-06-29T03:16:30.369Z,19.99
2023-06-29T03:18:58.378Z,19.92
2023-06-29T03:21:26.814Z,19.95
2023-06-29T03:23:56.244Z,19.81
2023-06-29T03:26:24.521Z,19.76
2023-06-29T03:28:52.572Z,19.74
2023-06-29T03:31:21.009Z,19.76
2023-06-29T03:33:49.129Z,19.70
2023-06-29T03:36:17.471Z,19.70
2023-06-29T03:38:45.678Z,19.69
2023-06-29T03:41:15.299Z,19.70
2023-06-29T03:43:43.354Z,19.49
2023-06-29T03:46:11.766Z,19.81
2023-06-29T03:48:39.904Z,19.86
2023-06-29T03:51:08.490Z,19.68
2023-06-29T03:53:36.492Z,19.53
2023-06-29T03:56:05.176Z,19.11
2023-06-29T03:58:34.541Z,18.79
2023-06-29T04:01:03.010Z,18.97
2023-06-29T04:03:31.123Z,18.92
2023-06-29T04:06:00.281Z,18.66
2023-06-29T04:08:29.112Z,18.79
2023-06-29T04:10:57.396Z,18.86
2023-06-29T04:13:25.666Z,18.99
2023-06-29T04:15:55.519Z,19.11
2023-06-29T04:18:23.653Z,19.22
2023-06-29T04:20:52.804Z,19.36
2023-06-29T04:23:20.860Z,19.47
2023-06-29T04:25:49.308Z,19.60
2023-06-29T04:28:17.599Z,19.65
2023-06-29T04:30:46.109Z,19.60
2023-06-29T04:33:16.322Z,19.61
2023-06-29T04:35:46.362Z,19.69
2023-06-29T04:38:15.353Z,19.73
2023-06-29T04:40:44.319Z,19.78
2023-06-29T04:43:14.569Z,19.85
2023-06-29T04:45:43.068Z,19.90
2023-06-29T04:48:11.921Z,19.96
2023-06-29T04:50:41.717Z,20.00
2023-06-29T04:53:12.794Z,19.69
2023-06-29T04:55:41.602Z,19.82
2023-06-29T04:58:09.710Z,19.93
2023-06-29T05:00:38.015Z,20.04
2023-06-29T05:03:06.233Z,20.11
2023-06-29T05:05:34.677Z,20.24
2023-06-29T05:08:04.191Z,20.31
2023-06-29T05:10:32.603Z,20.47
2023-06-29T05:13:00.737Z,20.53
2023-06-29T05:15:29.322Z,20.52
2023-06-29T05:17:57.465Z,20.51
2023-06-29T05:20:25.838Z,20.44
2023-06-29T05:22:53.864Z,20.43
2023-06-29T05:25:23.694Z,20.56
2023-06-29T05:27:51.751Z,20.61
2023-06-29T05:30:20.143Z,20.56
2023-06-29T05:32:48.438Z,20.59
2023-06-29T05:35:16.833Z,20.53
2023-06-29T05:37:44.886Z,20.42
2023-06-29T05:40:13.853Z,20.52
2023-06-29T05:42:43.250Z,20.59
2023-06-29T05:45:12.079Z,20.66
2023-06-29T05:47:40.189Z,20.68
2023-06-29T05:50:09.057Z,20.75
2023-06-29T05:52:38.701Z,20.85
2023-06-29T05:55:07.812Z,20.90
2023-06-29T05:57:35.931Z,20.96
2023-06-29T06:00:08.644Z,21.01
2023-06-29T06:02:38.550Z,21.11
2023-06-29T06:05:08.388Z,21.22
2023-06-29T06:07:36.971Z,21.28
2023-06-29T06:10:06.084Z,21.32
2023-06-29T06:12:34.172Z,21.36
2023-06-29T06:15:02.588Z,21.48
2023-06-29T06:17:32.053Z,21.42
2023-06-29T06:20:00.466Z,21.49
2023-06-29T06:22:28.558Z,21.58
2023-06-29T06:24:56.874Z,21.70
2023-06-29T06:27:25.547Z,22.00
2023-06-29T06:29:53.957Z,21.95
2023-06-29T06:32:25.453Z,21.95
2023-06-29T06:34:55.251Z,21.91
2023-06-29T06:37:23.349Z,21.83
2023-06-29T06:39:51.637Z,21.83
2023-06-29T06:42:19.764Z,21.94
2023-06-29T06:44:52.458Z,22.07
2023-06-29T06:47:20.869Z,22.27
2023-06-29T06:49:49.307Z,22.41
2023-06-29T06:52:18.906Z,22.44
2023-06-29T06:54:47.212Z,22.58
2023-06-29T06:57:15.318Z,22.61
2023-06-29T06:59:46.816Z,22.62
2023-06-29T07:02:15.237Z,22.62
2023-06-29T07:04:43.920Z,22.66
2023-06-29T07:07:12.050Z,22.70
2023-06-29T07:09:41.735Z,22.76
2023-06-29T07:12:11.075Z,22.86
2023-06-29T07:14:39.093Z,22.88
2023-06-29T07:17:08.006Z,22.95
2023-06-29T07:24:38.942Z,23.05
2023-06-29T07:27:08.942Z,23.08
2023-06-29T07:29:36.949Z,23.22
2023-06-29T07:32:05.871Z,23.30
2023-06-29T07:34:33.978Z,23.58
2023-06-29T07:37:02.578Z,23.63
2023-06-29T07:39:30.678Z,23.75
2023-06-29T07:41:58.998Z,24.04
2023-06-29T07:44:28.583Z,24.04
2023-06-29T07:46:56.943Z,24.11
2023-06-29T07:49:25.064Z,24.25
2023-06-29T07:51:53.440Z,24.37
2023-06-29T07:54:21.481Z,24.55
2023-06-29T07:59:22.052Z,24.57
2023-06-29T08:01:51.888Z,24.59
2023-06-29T08:06:45.975Z,24.67
2023-06-29T08:07:10.604Z,24.82
2023-06-29T08:09:39.633Z,24.85
2023-06-29T08:12:09.044Z,24.82
2023-06-29T08:14:37.148Z,24.90
2023-06-29T08:17:07.187Z,24.99
2023-06-29T08:19:35.416Z,25.01
2023-06-29T08:22:04.521Z,25.05
2023-06-29T08:24:32.634Z,25.27
2023-06-29T08:27:01.067Z,25.33
2023-06-29T08:29:29.225Z,25.31
2023-06-29T08:31:57.613Z,25.23
2023-06-29T08:34:30.228Z,25.27
2023-06-29T08:36:58.732Z,25.26
2023-06-29T08:39:26.842Z,25.29
2023-06-29T08:41:57.284Z,25.36
2023-06-29T08:44:26.880Z,25.44
2023-06-29T08:46:55.268Z,25.48
2023-06-29T08:49:24.224Z,25.62
2023-06-29T08:51:54.975Z,25.61
2023-06-29T08:54:23.555Z,25.73
2023-06-29T08:56:52.671Z,25.73
2023-06-29T08:59:21.281Z,25.82
2023-06-29T09:01:49.885Z,25.91
2023-06-29T09:04:18.105Z,26.01
2023-06-29T09:06:46.686Z,26.25
2023-06-29T09:09:16.183Z,26.26
2023-06-29T09:11:44.523Z,26.26
2023-06-29T09:14:12.868Z,26.36
2023-06-29T09:16:51.188Z,26.39
2023-06-29T09:19:19.914Z,26.50
2023-06-29T09:21:49.525Z,26.43
2023-06-29T09:24:18.935Z,26.50
2023-06-29T09:26:50.586Z,26.55
2023-06-29T09:29:18.726Z,26.40
2023-06-29T09:31:55.718Z,26.47
2023-06-29T09:34:26.560Z,26.45
2023-06-29T09:36:55.349Z,26.42
2023-06-29T09:39:26.365Z,26.21
2023-06-29T09:41:56.724Z,26.30
2023-06-29T09:44:26.548Z,26.39
2023-06-29T09:49:30.690Z,26.20
2023-06-29T09:52:04.925Z,26.33
2023-06-29T09:54:37.193Z,26.45
2023-06-29T09:57:06.230Z,26.67
2023-06-29T09:59:36.444Z,26.53
2023-06-29T10:02:05.824Z,26.56
2023-06-29T10:04:34.050Z,26.42
2023-06-29T10:07:10.563Z,26.36
2023-06-29T10:09:42.671Z,26.54
2023-06-29T10:12:12.536Z,26.54
2023-06-29T10:14:41.570Z,26.63
2023-06-29T10:17:13.763Z,26.65
2023-06-29T10:19:44.278Z,26.78
2023-06-29T10:22:17.095Z,26.97
2023-06-29T10:24:48.922Z,27.04
2023-06-29T10:27:17.673Z,27.16
2023-06-29T10:29:46.568Z,26.74
2023-06-29T10:32:34.073Z,26.49
2023-06-29T10:35:04.924Z,26.64
2023-06-29T10:37:34.145Z,27.17
2023-06-29T10:40:06.300Z,27.46
2023-06-29T10:42:52.289Z,27.52
2023-06-29T10:45:34.567Z,27.69
2023-06-29T10:48:07.841Z,27.97
2023-06-29T10:50:42.370Z,28.12
2023-06-29T10:53:12.716Z,28.02
2023-06-29T10:55:45.042Z,27.81
2023-06-29T10:58:19.528Z,27.76
2023-06-29T11:00:48.393Z,27.86
2023-06-29T11:03:17.198Z,27.60
2023-06-29T11:05:45.984Z,27.45
2023-06-29T11:08:14.256Z,27.28
2023-06-29T11:10:43.983Z,27.23
2023-06-29T11:13:13.058Z,26.86
2023-06-29T11:15:41.201Z,27.07
2023-06-29T11:18:10.777Z,27.09
2023-06-29T11:20:40.228Z,26.70
2023-06-29T11:23:09.419Z,26.41
2023-06-29T11:25:38.862Z,26.56
2023-06-29T11:28:08.494Z,26.70
2023-06-29T11:30:40.287Z,26.85
2023-06-29T11:33:24.361Z,27.00
2023-06-29T11:36:00.058Z,26.69
2023-06-29T11:38:28.401Z,26.70
2023-06-29T11:41:04.309Z,26.84
2023-06-29T11:43:33.956Z,26.66
2023-06-29T11:46:02.489Z,26.73
2023-06-29T11:48:31.544Z,26.71
2023-06-29T11:51:01.636Z,26.60
2023-06-29T11:53:31.011Z,26.71
2023-06-29T11:55:59.473Z,26.77
2023-06-29T11:58:35.458Z,26.69
2023-06-29T12:01:03.939Z,26.64
2023-06-29T12:03:32.308Z,26.44
2023-06-29T12:06:02.213Z,26.31
2023-06-29T12:08:38.532Z,26.32
2023-06-29T12:11:07.340Z,26.36
2023-06-29T12:13:37.016Z,26.41
2023-06-29T12:18:38.088Z,26.45
2023-06-29T12:21:06.661Z,26.20
2023-06-29T12:23:35.323Z,26.15
2023-06-29T12:26:03.578Z,26.28
2023-06-29T12:28:31.956Z,26.37
2023-06-29T12:31:03.537Z,26.39
2023-06-29T12:33:31.858Z,26.55
2023-06-29T12:35:59.938Z,26.54
2023-06-29T12:38:28.353Z,26.55
2023-06-29T12:40:56.434Z,26.54
2023-06-29T12:43:24.734Z,26.69
2023-06-29T12:45:53.018Z,26.84
2023-06-29T12:48:22.730Z,27.05
2023-06-29T12:50:50.829Z,27.21
2023-06-29T12:53:19.142Z,27.40
2023-06-29T12:55:47.572Z,27.52
2023-06-29T12:58:16.230Z,27.79
2023-06-29T13:00:44.407Z,27.98
2023-06-29T13:03:15.474Z,28.21
2023-06-29T13:05:45.743Z,28.40
2023-06-29T13:08:15.330Z,28.54
2023-06-29T13:10:43.633Z,28.72
2023-06-29T13:13:12.080Z,28.78
2023-06-29T13:15:40.209Z,28.91
2023-06-29T13:18:08.584Z,28.83
2023-06-29T13:20:36.943Z,28.97
2023-06-29T13:23:06.659Z,28.83
2023-06-29T13:25:34.756Z,29.08
2023-06-29T13:28:03.061Z,29.18
2023-06-29T13:30:31.178Z,29.18
2023-06-29T13:32:59.485Z,29.21
2023-06-29T13:35:27.671Z,29.14
2023-06-29T13:37:55.973Z,29.12
2023-06-29T13:40:25.435Z,28.94
2023-06-29T13:42:53.803Z,28.78
2023-06-29T13:45:22.057Z,28.65
2023-06-29T13:47:50.415Z,28.78
2023-06-29T13:50:22.743Z,28.65
2023-06-29T13:52:54.381Z,28.61
2023-06-29T13:55:23.536Z,28.31
2023-06-29T13:57:53.425Z,28.27
2023-06-29T14:00:23.100Z,28.28
2023-06-29T14:02:53.455Z,28.31
2023-06-29T14:05:22.287Z,28.38
2023-06-29T14:07:50.681Z,28.72
2023-06-29T14:10:19.003Z,28.96
2023-06-29T14:12:47.515Z,29.24
2023-06-29T14:15:17.020Z,29.43
2023-06-29T14:17:45.759Z,29.59
2023-06-29T14:20:14.132Z,29.75
2023-06-29T14:22:42.993Z,29.93
2023-06-29T14:25:11.631Z,30.13
2023-06-29T14:27:40.417Z,30.24
2023-06-29T14:30:11.546Z,30.13
2023-06-29T14:32:41.903Z,30.12
2023-06-29T14:35:10.331Z,30.16
2023-06-29T14:37:38.722Z,29.99
2023-06-29T14:40:08.581Z,30.04
2023-06-29T14:42:37.247Z,30.02
2023-06-29T14:45:06.284Z,30.17
2023-06-29T14:47:34.819Z,30.38
2023-06-29T14:50:04.809Z,30.35
2023-06-29T14:52:33.560Z,30.51
2023-06-29T14:55:01.784Z,30.72
2023-06-29T14:57:30.461Z,30.93
2023-06-29T14:59:58.767Z,30.96
2023-06-29T15:02:29.184Z,30.81
2023-06-29T15:04:57.445Z,30.65
2023-06-29T15:07:27.612Z,30.55
2023-06-29T15:09:56.282Z,30.41
2023-06-29T15:12:25.129Z,30.43
2023-06-29T15:14:53.401Z,30.41
2023-06-29T15:17:23.655Z,30.54
2023-06-29T15:19:51.760Z,30.34
2023-06-29T15:22:20.092Z,30.40
2023-06-29T15:24:49.545Z,30.36
2023-06-29T15:27:18.379Z,30.35
2023-06-29T15:29:46.419Z,30.36
2023-06-29T15:32:14.766Z,30.37
2023-06-29T15:34:42.853Z,30.42
2023-06-29T15:37:11.279Z,30.47
2023-06-29T15:39:39.348Z,30.47
2023-06-29T15:42:09.278Z,30.48
2023-06-29T15:44:37.543Z,30.64
2023-06-29T15:47:07.798Z,30.79
2023-06-29T15:49:35.978Z,30.73
2023-06-29T15:52:05.311Z,30.68
2023-06-29T15:54:33.621Z,30.33
2023-06-29T15:57:02.012Z,30.34
2023-06-29T15:59:31.615Z,30.39
2023-06-29T16:02:00.185Z,30.38
2023-06-29T16:04:28.319Z,30.39
2023-06-29T16:06:56.664Z,30.59
2023-06-29T16:09:28.334Z,30.72
2023-06-29T16:11:56.942Z,31.05
2023-06-29T16:14:25.030Z,31.43
2023-06-29T16:16:54.757Z,31.78
2023-06-29T16:19:25.579Z,32.07
2023-06-29T16:21:53.836Z,32.33
2023-06-29T16:24:22.453Z,32.52
2023-06-29T16:26:50.870Z,32.61
2023-06-29T16:29:19.310Z,32.60
2023-06-29T16:31:49.344Z,32.42
2023-06-29T16:34:19.269Z,32.08
2023-06-29T16:36:47.615Z,31.93
2023-06-29T16:39:15.816Z,32.27
2023-06-29T16:41:44.335Z,32.27
2023-06-29T16:44:12.461Z,32.36
2023-06-29T16:46:40.911Z,32.56
2023-06-29T16:49:09.440Z,32.63
2023-06-29T16:51:39.649Z,32.76
2023-06-29T16:54:08.059Z,32.96
2023-06-29T16:56:36.564Z,33.06
2023-06-29T16:59:04.635Z,33.40
2023-06-29T17:01:33.122Z,33.68
2023-06-29T17:04:01.620Z,34.04
2023-06-29T17:06:30.032Z,34.25
2023-06-29T17:08:59.508Z,34.30
2023-06-29T17:11:27.995Z,34.21
2023-06-29T17:13:57.286Z,34.03
2023-06-29T17:16:25.777Z,33.66
2023-06-29T17:18:53.941Z,33.45
2023-06-29T17:21:22.275Z,33.49
2023-06-29T17:23:53.705Z,33.69
2023-06-29T17:26:24.776Z,33.18
2023-06-29T17:28:52.849Z,33.06
2023-06-29T17:31:21.367Z,33.06
2023-06-29T17:33:55.068Z,32.54
2023-06-29T17:36:23.951Z,32.34
2023-06-29T17:38:52.388Z,32.03
2023-06-29T17:41:20.706Z,31.82
2023-06-29T17:43:50.086Z,31.45
2023-06-29T17:46:18.535Z,31.36
2023-06-29T17:48:47.370Z,31.21
2023-06-29T17:51:16.992Z,30.90
2023-06-29T17:53:46.548Z,30.77
2023-06-29T17:56:16.402Z,30.70
2023-06-29T17:58:45.672Z,30.68
2023-06-29T18:01:16.108Z,30.56
2023-06-29T18:03:44.833Z,30.46
2023-06-29T18:06:13.418Z,30.43
2023-06-29T18:08:41.767Z,30.27
2023-06-29T18:11:10.330Z,30.10
2023-06-29T18:13:39.144Z,29.95
2023-06-29T18:16:08.777Z,29.71
2023-06-29T18:18:38.756Z,29.41
2023-06-29T18:21:07.287Z,29.25
2023-06-29T18:23:35.597Z,29.01
2023-06-29T18:26:04.005Z,28.91
2023-06-29T18:28:32.016Z,28.75
2023-06-29T18:31:00.528Z,28.50
2023-06-29T18:33:29.713Z,28.42
2023-06-29T18:35:59.402Z,28.38
2023-06-29T18:38:27.547Z,28.36
2023-06-29T18:40:55.925Z,28.41
2023-06-29T18:43:24.043Z,28.42
2023-06-29T18:45:52.496Z,28.32
2023-06-29T18:48:20.757Z,28.31
2023-06-29T18:50:49.341Z,28.29
2023-06-29T18:53:19.186Z,28.19
2023-06-29T18:55:47.888Z,28.08
2023-06-29T18:58:16.226Z,28.00
2023-06-29T19:00:44.513Z,27.93
2023-06-29T19:03:12.953Z,27.86
2023-06-29T19:05:41.438Z,27.85
2023-06-29T19:08:09.540Z,27.75
2023-06-29T19:10:39.337Z,27.71
2023-06-29T19:13:07.383Z,27.60
2023-06-29T19:15:35.735Z,27.44
2023-06-29T19:18:03.903Z,27.30
2023-06-29T19:20:32.421Z,27.31
2023-06-29T19:23:00.470Z,27.25
2023-06-29T19:25:28.826Z,27.26
2023-06-29T19:27:58.360Z,27.24
2023-06-29T19:30:26.692Z,27.11
2023-06-29T19:32:54.816Z,27.05
2023-06-29T19:35:23.164Z,27.08
2023-06-29T19:37:51.162Z,27.01
2023-06-29T19:40:19.548Z,27.00
2023-06-29T19:42:47.756Z,26.98
2023-06-29T19:45:17.494Z,26.94
2023-06-29T19:47:45.688Z,26.88
2023-06-29T19:50:14.223Z,26.86
2023-06-29T19:52:42.331Z,26.72
2023-06-29T19:55:11.092Z,26.67
2023-06-29T19:57:39.298Z,26.65
2023-06-29T20:00:09.091Z,26.53
2023-06-29T20:02:57.026Z,26.49
2023-06-29T20:05:25.460Z,26.46
2023-06-29T20:07:53.614Z,26.32
2023-06-29T20:10:22.114Z,26.27
2023-06-29T20:12:50.142Z,26.26
2023-06-29T20:15:18.644Z,26.22
2023-06-29T20:17:46.763Z,26.21
2023-06-29T20:20:16.543Z,26.18
2023-06-29T20:22:44.642Z,26.21
2023-06-29T20:25:13.006Z,26.16
2023-06-29T20:27:41.228Z,26.02
2023-06-29T20:30:10.442Z,26.02
2023-06-29T20:32:39.085Z,26.07
2023-06-29T20:35:07.840Z,26.07
2023-06-29T20:37:37.423Z,26.05
2023-06-29T20:40:06.782Z,26.05
2023-06-29T20:42:38.631Z,26.00
2023-06-29T20:45:08.730Z,26.01
2023-06-29T20:47:37.137Z,25.93
2023-06-29T20:50:06.679Z,25.88
2023-06-29T20:52:34.965Z,25.76
2023-06-29T20:55:05.165Z,25.61
2023-06-29T20:57:37.844Z,25.63
2023-06-29T21:00:07.486Z,25.57
2023-06-29T21:02:36.588Z,25.47
2023-06-29T21:05:09.796Z,25.50
2023-06-29T21:07:38.537Z,25.45
2023-06-29T21:10:09.161Z,25.48
2023-06-29T21:12:38.278Z,25.39
2023-06-29T21:15:07.551Z,25.16
2023-06-29T21:17:36.315Z,25.22
2023-06-29T21:20:05.905Z,25.20
2023-06-29T21:22:34.773Z,25.19
2023-06-29T21:25:03.435Z,25.17
2023-06-29T21:27:33.510Z,25.10
2023-06-29T21:30:02.664Z,25.06
2023-06-29T21:32:31.601Z,24.99
2023-06-29T21:35:00.154Z,25.02
2023-06-29T21:37:28.816Z,24.93
2023-06-29T21:39:56.954Z,24.91
2023-06-29T21:42:25.497Z,24.91
2023-06-29T21:44:55.905Z,24.91
2023-06-29T21:47:24.220Z,24.87
2023-06-29T21:49:52.541Z,24.83
2023-06-29T21:52:20.967Z,24.76
2023-06-29T21:54:49.234Z,24.78
2023-06-29T21:57:17.513Z,24.78
2023-06-29T21:59:45.563Z,24.77
2023-06-29T22:02:15.262Z,24.72
2023-06-29T22:04:43.455Z,24.69
2023-06-29T22:07:16.457Z,24.65
2023-06-29T22:09:45.429Z,24.52
2023-06-29T22:12:13.881Z,24.48
2023-06-29T22:14:48.766Z,24.40
2023-06-29T22:17:18.485Z,24.32
2023-06-29T22:19:49.893Z,24.28
2023-06-29T22:22:18.231Z,24.30
2023-06-29T22:24:46.371Z,24.28
2023-06-29T22:27:14.913Z,24.25
2023-06-29T22:29:42.993Z,24.24
2023-06-29T22:32:12.239Z,24.20
2023-06-29T22:34:41.660Z,24.19
2023-06-29T22:37:10.005Z,24.19
2023-06-29T22:39:38.111Z,24.15
2023-06-29T22:42:07.747Z,24.10
2023-06-29T22:44:35.800Z,24.08
2023-06-29T22:47:04.165Z,24.04
2023-06-29T22:49:32.686Z,24.02
2023-06-29T22:52:02.391Z,24.00
2023-06-29T22:54:30.551Z,24.01
2023-06-29T22:56:58.905Z,23.95
2023-06-29T22:59:26.995Z,23.95
2023-06-29T23:01:55.450Z,23.92
2023-06-29T23:04:23.556Z,23.89
2023-06-29T23:06:54.480Z,23.86
2023-06-29T23:09:24.481Z,23.84
2023-06-29T23:11:52.752Z,23.80
2023-06-29T23:14:20.845Z,23.81
2023-06-29T23:16:49.410Z,23.79
2023-06-29T23:19:17.520Z,23.70
2023-06-29T23:21:45.937Z,23.63
2023-06-29T23:24:16.851Z,23.55
2023-06-29T23:26:46.953Z,23.55
2023-06-29T23:29:15.227Z,23.50
2023-06-29T23:31:43.813Z,23.44
2023-06-29T23:34:11.959Z,23.41
2023-06-29T23:36:40.396Z,23.46
2023-06-29T23:39:10.045Z,23.38
2023-06-29T23:41:38.357Z,23.35
2023-06-29T23:44:09.172Z,23.36
2023-06-29T23:46:45.316Z,23.38
2023-06-29T23:49:14.495Z,23.21
2023-06-29T23:51:44.126Z,23.15
2023-06-29T23:54:12.866Z,23.17
2023-06-29T23:56:42.098Z,23.15
